Flight Track Log - Related Links

Times and Time Zones

All times are in EDT time to prevent confusion due to time zone crossing. See the RPA3333 flight status page for this flight to view local times or setup timezone preferences in your user account.

Time Position Orientation Groundspeed Altitude Reporting Facility
EDT Latitude Longitude Course Direction KTS MPH feet Rate Location/Type
Sun 06:58:50 AM 29.9958 -90.2819 49° Northeast 444 511 400  Level Houston Center
Sun 06:59:14 AM 30.0028 -90.3033 291° West 176 203 1,400 2,047 Climbing Houston Center
Sun 07:00:15 AM 30.0417 -90.3522 313° West 246 283 3,300 1,878 Climbing Houston Center
Sun 07:01:00 AM 30.1724 -89.9920 50° Northeast  Level FlightAware Approximate
Sun 07:01:09 AM 30.1033 -90.3375 12° North 270 311 5,000  Level Houston Center
Sun 07:02:00 AM 30.2371 -89.9015 50° Northeast  Level FlightAware Approximate
Sun 07:02:10 AM 30.1767 -90.2925 28° Northeast 289 333 8,100  Level Houston Center
Sun 07:03:00 AM 30.2996 -89.8089 52° Northeast  Level FlightAware Approximate
Sun 07:03:10 AM 30.2456 -90.2369 35° Northeast 298 343 10,700  Level Houston Center
Sun 07:04:00 AM 30.3625 -89.7167 49° Northeast  Level FlightAware Approximate
Sun 07:04:10 AM 30.3078 -90.1592 47° Northeast 324 373 12,600  Level Houston Center
Sun 07:05:11 AM 30.3739 -90.0806 46° Northeast 335 386 14,700 1,736 Climbing Houston Center
Sun 07:06:11 AM 30.4317 -89.9817 56° Northeast 363 418 16,100 1,488 Climbing Houston Center
Sun 07:07:12 AM 30.4908 -89.8781 56° Northeast 374 430 17,700 1,537 Climbing Houston Center
Sun 07:08:12 AM 30.5461 -89.7686 60° Northeast 384 442 19,200 1,550 Climbing Houston Center
Sun 07:09:12 AM 30.6028 -89.6586 59° Northeast 390 449 20,800 1,636 Climbing Houston Center
Sun 07:10:13 AM 30.6586 -89.5469 60° Northeast 394 453 22,500 1,736 Climbing Houston Center
Sun 07:11:13 AM 30.7169 -89.4325 59° Northeast 405 466 24,300 1,587 Climbing Houston Center
Sun 07:12:14 AM 30.7753 -89.3164 60° Northeast 411 473 25,700 1,240 Climbing Houston Center
Sun 07:13:14 AM 30.8347 -89.1953 60° Northeast 430 495 26,800 992 Climbing Houston Center
Sun 07:14:15 AM 30.8958 -89.0717 60° Northeast 440 506 27,700 885 Climbing Houston Center
Sun 07:15:16 AM 30.9592 -88.9442 60° Northeast 453 521 28,600 992 Climbing Houston Center
Sun 07:16:16 AM 31.0278 -88.8081 60° Northeast 459 528 29,700 1,000 Climbing Houston Center
Sun 07:17:16 AM 31.0933 -88.6758 60° Northeast 467 537 30,600 645 Climbing Houston Center
Sun 07:18:17 AM 31.1539 -88.5519 60° Northeast 468 539 31,000 397 Climbing Houston Center
Sun 07:19:17 AM 31.2158 -88.4242 60° Northeast 458 527 31,400 843 Climbing Houston Center
Sun 07:20:18 AM 31.2819 -88.2922 60° Northeast 432 497 32,700 787 Climbing Houston Center
Sun 07:21:19 AM 31.3414 -88.1719 60° Northeast 427 491 33,000 149 Climbing Houston Center
Sun 07:22:19 AM 31.3983 -88.0531 61° Northeast 423 487 33,000  Level Houston Center
Sun 07:23:20 AM 31.4550 -87.9353 61° Northeast 417 480 33,000  Level Houston Center
Sun 07:24:20 AM 31.5114 -87.8197 60° Northeast 412 474 33,000  Level Houston Center
Sun 07:25:21 AM 31.5667 -87.7036 61° Northeast 411 473 33,000  Level Houston Center
Sun 07:26:22 AM 31.6225 -87.5881 60° Northeast 409 471 33,000  Level Houston Center
Sun 07:27:22 AM 31.6775 -87.4725 61° Northeast 408 470 33,000  Level Houston Center
Sun 07:28:23 AM 31.7339 -87.3567 60° Northeast 408 470 33,000  Level Houston Center
Sun 07:29:24 AM 31.7892 -87.2394 61° Northeast 409 471 33,000  Level Houston Center
Sun 07:30:24 AM 31.8439 -87.1222 61° Northeast 409 471 33,000  Level Houston Center
Sun 07:31:25 AM 31.8983 -87.0067 61° Northeast 406 467 33,000  Level Houston Center
Sun 07:32:26 AM 31.9544 -86.8919 60° Northeast 406 467 33,000  Level Houston Center
Sun 07:33:26 AM 32.0081 -86.7767 61° Northeast 404 465 33,000  Level Houston Center
Sun 07:34:51 AM 32.0892 -86.6153 59° Northeast 395 455 33,000  Level Atlanta Center
Sun 07:35:51 AM 32.1436 -86.5017 60° Northeast 395 455 33,000  Level Atlanta Center
Sun 07:36:51 AM 32.1983 -86.3781 62° Northeast 388 447 33,000  Level Atlanta Center
Sun 07:37:51 AM 32.2567 -86.2664 58° Northeast 383 441 33,000  Level Atlanta Center
Sun 07:38:51 AM 32.3231 -86.1650 52° Northeast 389 448 33,000  Level Atlanta Center
Sun 07:39:51 AM 32.3939 -86.0608 51° Northeast 395 455 33,000  Level Atlanta Center
Sun 07:40:51 AM 32.4558 -85.9711 51° Northeast 395 455 33,000  Level Atlanta Center
Sun 07:41:51 AM 32.5306 -85.8644 50° Northeast 390 449 33,000  Level Atlanta Center
Sun 07:42:51 AM 32.5986 -85.7647 51° Northeast 397 457 33,000  Level Atlanta Center
Sun 07:43:51 AM 32.6647 -85.6625 52° Northeast 391 450 33,000  Level Atlanta Center
Sun 07:44:51 AM 32.7328 -85.5575 52° Northeast 391 450 33,000 100 Level Atlanta Center
Sun 07:45:51 AM 32.8031 -85.4550 51° Northeast 391 450 33,200 350 Climbing Atlanta Center
Sun 07:46:51 AM 32.8708 -85.3497 53° Northeast 391 450 33,700 400 Climbing Atlanta Center
Sun 07:47:51 AM 32.9408 -85.2442 52° Northeast 391 450 34,000 150 Climbing Atlanta Center
Sun 07:48:51 AM 33.0172 -85.1314 51° Northeast 396 456 34,000  Level Atlanta Center
Sun 07:49:51 AM 33.0869 -85.0256 52° Northeast 391 450 34,000 150 Level Atlanta Center
Sun 07:50:51 AM 33.1567 -84.9197 52° Northeast 391 450 34,300 400 Climbing Atlanta Center
Sun 07:51:51 AM 33.2261 -84.8136 52° Northeast 391 450 34,800 350 Climbing Atlanta Center
Sun 07:52:51 AM 33.2956 -84.7072 52° Northeast 391 450 35,000 100 Climbing Atlanta Center
Sun 07:53:51 AM 33.3631 -84.6008 53° Northeast 391 450 35,000  Level Atlanta Center
Sun 07:54:51 AM 33.4261 -84.5042 52° Northeast 396 456 35,000  Level Atlanta Center
Sun 07:55:51 AM 33.4931 -84.3975 53° Northeast 396 456 35,000  Level Atlanta Center
Sun 07:56:51 AM 33.5622 -84.2906 52° Northeast 396 456 35,000  Level Atlanta Center
Sun 07:57:51 AM 33.6314 -84.1811 53° Northeast 396 456 35,000  Level Atlanta Center
Sun 07:58:51 AM 33.7003 -84.0739 52° Northeast 396 456 35,000  Level Atlanta Center
Sun 07:59:51 AM 33.7672 -83.9689 52° Northeast 396 456 35,000  Level Atlanta Center
Sun 08:00:51 AM 33.8358 -83.8611 53° Northeast 391 450 35,000  Level Atlanta Center
Sun 08:01:51 AM 33.9044 -83.7561 52° Northeast 391 450 35,000  Level Atlanta Center
Sun 08:02:51 AM 33.9731 -83.6481 53° Northeast 391 450 35,000  Level Atlanta Center
Sun 08:03:51 AM 34.0394 -83.5425 53° Northeast 391 450 35,000  Level Atlanta Center
Sun 08:04:51 AM 34.1081 -83.4342 53° Northeast 391 450 35,000  Level Atlanta Center
Sun 08:05:51 AM 34.1761 -83.3256 53° Northeast 391 450 35,000  Level Atlanta Center
Sun 08:06:51 AM 34.2444 -83.2194 52° Northeast 391 450 35,000  Level Atlanta Center
Sun 08:07:51 AM 34.3106 -83.1108 54° Northeast 391 450 35,000  Level Atlanta Center
Sun 08:08:51 AM 34.3742 -83.0019 55° Northeast 391 450 35,000  Level Atlanta Center
Sun 08:09:51 AM 34.4422 -82.8928 53° Northeast 391 450 35,000  Level Atlanta Center
Sun 08:10:51 AM 34.5036 -82.7836 56° Northeast 391 450 35,000  Level Atlanta Center
Sun 08:11:51 AM 34.5692 -82.6714 55° Northeast 397 457 35,000  Level Atlanta Center
Sun 08:12:51 AM 34.6325 -82.5442 59° Northeast 402 463 35,000  Level Atlanta Center
Sun 08:13:51 AM 34.6767 -82.4172 67° East 402 463 35,000  Level Atlanta Center
Sun 08:14:51 AM 34.7211 -82.2925 67° East 402 463 35,000  Level Atlanta Center
Sun 08:15:51 AM 34.7650 -82.1653 67° East 402 463 35,000  Level Atlanta Center
Sun 08:16:51 AM 34.8239 -82.0525 58° Northeast 395 455 35,000  Level Atlanta Center
Sun 08:17:51 AM 34.8889 -81.9472 53° Northeast 388 447 35,000  Level Atlanta Center
Sun 08:18:51 AM 34.9558 -81.8417 52° Northeast 388 447 35,000  Level Atlanta Center
Sun 08:19:51 AM 35.0186 -81.7358 54° Northeast 388 447 35,000  Level Atlanta Center
Sun 08:20:51 AM 35.0833 -81.6250 54° Northeast 388 447 35,000  Level Atlanta Center
Sun 08:21:51 AM 35.1458 -81.5189 54° Northeast 388 447 35,000 -400 Level Atlanta Center
Sun 08:22:51 AM 35.2083 -81.4128 54° Northeast 388 447 34,200 -850 Descending Atlanta Center
Sun 08:23:51 AM 35.2706 -81.3042 55° Northeast 388 447 33,300 -950 Descending Atlanta Center
Sun 08:24:51 AM 35.3286 -81.2028 55° Northeast 393 452 32,300 -1,000 Descending Atlanta Center
Sun 08:25:51 AM 35.3950 -81.0911 54° Northeast 393 452 31,300 -650 Descending Atlanta Center
Sun 08:26:51 AM 35.4611 -80.9817 53° Northeast 393 452 31,000 -150 Descending Atlanta Center
Sun 08:27:51 AM 35.5272 -80.8694 54° Northeast 393 452 31,000  Level Atlanta Center
Sun 08:28:51 AM 35.5931 -80.7597 54° Northeast 393 452 31,000  Level Atlanta Center
Sun 08:29:51 AM 35.6567 -80.6472 55° Northeast 393 452 31,000  Level Atlanta Center
Sun 08:30:51 AM 35.7225 -80.5394 53° Northeast 388 447 31,000  Level Atlanta Center
Sun 08:32:25 AM 35.8275 -80.3544 55° Northeast 396 456 31,000  Level Washington Center
Sun 08:33:22 AM 35.8925 -80.2431 54° Northeast 396 456 31,000  Level Washington Center
Sun 08:34:24 AM 35.9572 -80.1314 54° Northeast 396 456 31,000  Level Washington Center
Sun 08:35:24 AM 36.0111 -80.0344 55° Northeast 390 449 31,000  Level Washington Center
Sun 08:36:25 AM 36.0778 -79.9225 54° Northeast 396 456 31,000  Level Washington Center
Sun 08:37:23 AM 36.1403 -79.8103 55° Northeast 396 456 31,000  Level Washington Center
Sun 08:38:23 AM 36.2156 -79.6803 54° Northeast 403 464 31,000  Level Washington Center
Sun 08:39:25 AM 36.2778 -79.5650 56° Northeast 403 464 31,000  Level Washington Center
Sun 08:40:23 AM 36.3356 -79.4647 54° Northeast 403 464 31,000  Level Washington Center
Sun 08:41:23 AM 36.4042 -79.3392 56° Northeast 403 464 31,000  Level Washington Center
Sun 08:42:22 AM 36.4703 -79.2236 55° Northeast 403 464 31,000 -100 Level Washington Center
Sun 08:43:23 AM 36.5297 -79.1228 54° Northeast 404 465 30,800 -1,171 Descending Washington Center
Sun 08:44:25 AM 36.5914 -79.0119 55° Northeast 398 458 28,600 -2,164 Descending Washington Center
Sun 08:45:25 AM 36.6572 -78.8906 56° Northeast 403 464 26,400 -1,815 Descending Washington Center
Sun 08:46:24 AM 36.7319 -78.7536 56° Northeast 421 484 25,000 -700 Descending Washington Center
Sun 08:47:25 AM 36.7844 -78.6547 56° Northeast 401 461 25,000  Level Washington Center
Sun 08:48:22 AM 36.8500 -78.5378 55° Northeast 381 438 25,000  Level Washington Center
Sun 08:49:23 AM 36.9025 -78.4386 56° Northeast 376 433 25,000 -197 Level Washington Center
Sun 08:50:24 AM 36.9678 -78.3214 55° Northeast 376 433 24,600 -689 Descending Washington Center
Sun 08:51:25 AM 37.0036 -78.2136 67° East 362 417 23,600 -807 Descending Washington Center
Sun 08:52:23 AM 37.0208 -78.0892 80° East 355 409 23,000 -303 Descending Washington Center
Sun 08:53:24 AM 37.0381 -77.9650 80° East 355 409 23,000  Level Washington Center
Sun 08:54:23 AM 37.0553 -77.8353 81° East 360 414 23,000  Level Washington Center
Sun 08:55:24 AM 37.0719 -77.7133 80° East 360 414 23,000  Level Washington Center
Sun 08:56:25 AM 37.1031 -77.5969 71° East 360 414 23,000  Level Washington Center
Sun 08:57:23 AM 37.1981 -77.5292 30° Northeast 346 398 23,000  Level Washington Center
Sun 08:58:24 AM 37.2953 -77.4636 28° Northeast 363 418 23,000 -248 Level Washington Center
Sun 08:59:24 AM 37.3900 -77.3981 29° Northeast 376 433 22,500 -496 Descending Washington Center
Sun 09:00:25 AM 37.4828 -77.3347 28° Northeast 381 438 22,000 -252 Descending Washington Center
Sun 09:01:23 AM 37.5875 -77.3031 13° North 375 432 22,000 -202 Level Washington Center
Sun 09:02:24 AM 37.6900 -77.2819 North 370 426 21,600 -1,180 Descending Washington Center
Sun 09:03:25 AM 37.7883 -77.2603 10° North 365 420 19,600 -1,815 Descending Washington Center
Sun 09:04:23 AM 37.8886 -77.2417 North 365 420 18,000 -1,866 Descending Washington Center
Sun 09:05:24 AM 37.9828 -77.2200 10° North 359 413 15,900 -1,869 Descending Washington Center
Sun 09:06:25 AM 38.0747 -77.2033 North 340 391 14,200 -1,729 Descending Washington Center
Sun 09:07:22 AM 38.1628 -77.1842 10° North 332 382 12,500 -1,729 Descending Washington Center
Sun 09:08:23 AM 38.2464 -77.1647 10° North 321 369 10,800 -1,230 Descending Washington Center
Sun 09:09:24 AM 38.3217 -77.1425 13° North 301 346 10,000 -545 Descending Washington Center
Sun 09:10:24 AM 38.3311 -77.0475 83° East 215 247 9,700 -403 Descending Washington Center
Sun 09:11:23 AM 38.3403 -76.9761 81° East 206 237 9,200 -655 Descending Washington Center
Sun 09:12:23 AM 38.3761 -76.9425 36° Northeast 206 237 8,400 -793 Descending Washington Center
Sun 09:13:24 AM 38.4133 -76.9908 315° West 112 129 7,600 -787 Descending Washington Center
Sun 09:14:25 AM 38.4653 -76.9997 352° North 149 171 6,800 -857 Descending Washington Center
Sun 09:15:23 AM 38.5131 -77.0058 354° North 166 191 5,900 -857 Descending Washington Center
Sun 09:16:24 AM 38.5589 -77.0094 356° North 166 191 5,100 -712 Descending Washington Center
Sun 09:18:20 AM 38.6500 -77.0167 356° North 165 190 3,800 -741 Descending Potomac TRACON
Sun 09:19:14 AM 38.7000 -77.0167 360° North 164 189 3,000 -947 Descending Potomac TRACON
Sun 09:20:14 AM 38.7500 -77.0333 345° North 167 192 2,000 -900 Descending Potomac TRACON
Sun 09:21:14 AM 38.7833 -77.0333 360° North 162 186 1,200 -700 Descending Potomac TRACON
Sun 09:22:14 AM 38.8167 -77.0167 21° North 134 154 600 -600 Descending Potomac TRACON

Login

Don't have an account? Register now (free) for customized features, flight alerts, and more!